aviador You're here:

KSBA Decoded Metar

SANTA BARBARA in CA, USA
Report Time2017-08-19 10:53:00
UTC Time2017-08-19 11:06:43
Flight Rules vfr VFR
Wind100° at 05 kt
W.Decomp.*RWY 07: 4.8 kt HW 1.4 kt RCW
RWY 15: 2.2 kt HW 4.5 kt LCW
W.Rank100° ranks 15
Current wind is below 100° avg. (5.1)
Visibility9999 m
Phenomena:N/A
Clouds:N/A
Expected CloudBase > 400 ft AGL from Temp-Dew spread
CeilingNone
Temp17°C (ISA +2)
Dew Point16°C (94% RH)
QNH1013 hPa
Density Alt489 ft
Elevation10 ft
Report Wrong Elevation
Raw Report
METAR KSBA 191053Z 10005KT 7SM CLR 17/16 A2992 RMK AO2 SLP132 T01670156=

Extra information for KSBA:More info

Metar Taf Metar & Taf Last 4 Metars F.Rules Stats Wind Profile Meteogram Temp Stats Airport Information Weather charts Add Link Nearby VenuesMetar ALERT Operation Metar Decoded Social comments

AIRNAV info for KSBA